map of TUD home
TUD - Airport
Location
City:  Tambacounda, Tambacounda, Senegal
Name:Tambacounda Airport
ICAO:GOTT
IATA:TUD

Details
Type:Airport (Aerodrome, Airfield)
Use:Public/Civil
Latitude:1344'13"N (13.736817)
Longitude:1339'11"W (-13.653121)
Datum:WGS 1984
Elevation:161 ft (49 m)
Variation:5.90W (WMM2015 magnetic declination)
0.11 annual change
Runways:1
Longest:6562 × 98 ft (2000 × 30 m), paved

Time
Time Zone:UTC+0
Local Time:

Weather
METAR:GOTT 200900Z 12008KT 090V160 CAVOK 27/22 Q1012

Related Locations
Nearby:
Farthest:TOH: 12430 mi / 20004 km
Loh/Linua [Torres Airstrip], Linua Island, TOB, VU

Find:

   beyond  
but within

Other Information
Maps:
NOTAMs:
Links:
Sources:

  
  • flag of Senegal
  

Sectional Chart

Flight Planning
at skyvector.com

Satellite Image

Google Maps Satellite view

 

Copyright © 2004-2018 Karl L. Swartz. All rights reserved.
The Great Circle Mapper name and logo are trademarks of the Great Circle Mapper.
All other trademarks mentioned herein belong to their respective owners.
Please see credits for attibutions and further copyright information.

  Follow gcmap on Facebook Follow gcmap on Twitter Follow gcmap on Google+ GCmap on LinkedIn

hCard Microformat

Geo Microformat